createdAt,value
2019-05-11T00:02:16.771Z,99.90
2019-05-11T00:04:49.380Z,99.90
2019-05-11T00:07:44.367Z,99.90
2019-05-11T00:10:18.803Z,99.90
2019-05-11T00:12:48.463Z,99.90
2019-05-11T00:15:18.144Z,99.90
2019-05-11T00:17:50.619Z,99.90
2019-05-11T00:20:42.805Z,99.90
2019-05-11T00:22:51.649Z,99.90
2019-05-11T00:25:21.230Z,99.90
2019-05-11T00:27:50.713Z,99.90
2019-05-11T00:30:20.343Z,99.90
2019-05-11T00:32:49.888Z,99.90
2019-05-11T00:35:19.489Z,99.90
2019-05-11T00:37:49.039Z,99.90
2019-05-11T00:40:18.711Z,99.90
2019-05-11T00:42:48.280Z,99.90
2019-05-11T00:45:17.931Z,99.90
2019-05-11T00:47:47.526Z,99.90
2019-05-11T00:50:17.083Z,99.90
2019-05-11T00:52:46.944Z,99.90
2019-05-11T00:55:16.723Z,99.90
2019-05-11T00:58:09.815Z,99.90
2019-05-11T01:00:39.368Z,99.90
2019-05-11T01:03:08.944Z,99.90
2019-05-11T01:05:38.492Z,99.90
2019-05-11T01:08:08.093Z,99.90
2019-05-11T01:10:42.100Z,99.90
2019-05-11T01:13:09.040Z,99.90
2019-05-11T01:15:38.638Z,99.90
2019-05-11T01:18:08.161Z,99.90
2019-05-11T01:20:37.758Z,99.90
2019-05-11T01:23:07.392Z,99.90
2019-05-11T01:25:37.079Z,99.90
2019-05-11T01:28:06.627Z,99.90
2019-05-11T01:30:38.688Z,99.90
2019-05-11T01:33:07.347Z,99.90
2019-05-11T01:35:37.009Z,99.90
2019-05-11T01:38:06.630Z,99.90
2019-05-11T01:40:36.194Z,99.90
2019-05-11T01:43:05.777Z,99.90
2019-05-11T01:45:35.627Z,99.90
2019-05-11T01:48:05.166Z,99.90
2019-05-11T01:50:34.697Z,99.90
2019-05-11T01:53:04.266Z,99.90
2019-05-11T01:55:33.824Z,99.90
2019-05-11T01:58:03.351Z,99.90
2019-05-11T02:00:32.906Z,99.90
2019-05-11T02:03:02.376Z,99.90
2019-05-11T02:05:32.111Z,99.90
2019-05-11T02:08:02.654Z,99.90
2019-05-11T02:10:32.430Z,99.90
2019-05-11T02:13:01.938Z,99.90
2019-05-11T02:15:31.594Z,99.90
2019-05-11T02:18:01.231Z,99.90
2019-05-11T02:20:30.802Z,99.90
2019-05-11T02:23:00.291Z,99.90
2019-05-11T02:25:29.788Z,99.90
2019-05-11T02:27:59.301Z,99.90
2019-05-11T02:30:28.908Z,99.90
2019-05-11T02:32:58.526Z,99.90
2019-05-11T02:35:28.240Z,99.90
2019-05-11T02:37:57.759Z,99.90
2019-05-11T02:40:27.347Z,99.90
2019-05-11T02:42:56.852Z,99.90
2019-05-11T02:45:39.670Z,99.90
2019-05-11T02:48:09.194Z,99.90
2019-05-11T02:50:39.491Z,99.90
2019-05-11T02:53:09.690Z,99.90
2019-05-11T02:55:39.966Z,99.90
2019-05-11T02:58:09.715Z,99.90
2019-05-11T03:00:43.310Z,99.90
2019-05-11T03:03:12.970Z,99.90
2019-05-11T03:05:42.552Z,99.90
2019-05-11T03:08:12.145Z,99.90
2019-05-11T03:10:41.784Z,99.90
2019-05-11T03:13:11.293Z,99.90
2019-05-11T03:15:40.862Z,99.90
2019-05-11T03:18:10.479Z,99.90
2019-05-11T03:20:40.015Z,99.90
2019-05-11T03:23:09.694Z,99.90
2019-05-11T03:25:39.260Z,99.90
2019-05-11T03:28:08.766Z,99.90
2019-05-11T03:30:38.458Z,99.90
2019-05-11T03:33:08.049Z,99.90
2019-05-11T03:35:37.646Z,99.90
2019-05-11T03:38:07.189Z,99.90
2019-05-11T03:40:36.860Z,99.90
2019-05-11T03:43:06.421Z,99.90
2019-05-11T03:45:36.065Z,99.90
2019-05-11T03:48:05.748Z,99.90
2019-05-11T03:50:35.400Z,99.90
2019-05-11T03:53:05.139Z,99.90
2019-05-11T03:55:34.739Z,99.90
2019-05-11T03:58:04.332Z,99.90
2019-05-11T04:00:33.931Z,99.90
2019-05-11T04:03:03.460Z,99.90
2019-05-11T04:05:33.255Z,99.90
2019-05-11T04:08:02.762Z,99.90
2019-05-11T04:10:32.385Z,99.90
2019-05-11T04:13:01.875Z,99.90
2019-05-11T04:15:31.363Z,99.90
2019-05-11T04:18:00.870Z,99.90
2019-05-11T04:20:30.278Z,99.90
2019-05-11T04:22:59.765Z,99.90
2019-05-11T04:25:29.349Z,99.90
2019-05-11T04:27:58.873Z,99.90
2019-05-11T04:30:28.491Z,99.90
2019-05-11T04:32:57.963Z,99.90
2019-05-11T04:35:27.633Z,99.90
2019-05-11T04:38:13.114Z,99.90
2019-05-11T04:40:42.747Z,99.90
2019-05-11T04:43:12.338Z,99.90
2019-05-11T04:45:41.823Z,99.90
2019-05-11T04:48:11.329Z,99.90
2019-05-11T04:50:41.023Z,99.90
2019-05-11T04:53:10.574Z,99.90
2019-05-11T04:55:40.150Z,99.90
2019-05-11T04:58:09.639Z,99.90
2019-05-11T05:00:39.241Z,99.90
2019-05-11T05:03:10.057Z,99.90
2019-05-11T05:05:39.599Z,99.90
2019-05-11T05:08:10.120Z,99.90
2019-05-11T05:10:39.669Z,99.90
2019-05-11T05:13:10.905Z,99.90
2019-05-11T05:15:42.587Z,99.90
2019-05-11T05:18:12.186Z,99.90
2019-05-11T05:20:43.769Z,99.90
2019-05-11T05:23:13.015Z,99.90
2019-05-11T05:25:42.578Z,99.90
2019-05-11T05:28:12.217Z,99.90
2019-05-11T05:30:41.732Z,99.90
2019-05-11T05:33:11.413Z,99.90
2019-05-11T05:35:41.132Z,99.90
2019-05-11T05:38:11.213Z,99.90
2019-05-11T05:40:40.767Z,99.90
2019-05-11T05:43:24.377Z,99.90
2019-05-11T05:45:41.903Z,99.90
2019-05-11T05:48:12.064Z,99.90
2019-05-11T05:50:41.676Z,99.90
2019-05-11T05:53:11.213Z,99.90
2019-05-11T05:55:40.746Z,99.90
2019-05-11T05:58:10.354Z,99.90
2019-05-11T06:00:39.947Z,99.90
2019-05-11T06:03:09.441Z,99.90
2019-05-11T06:05:40.857Z,99.90
2019-05-11T06:08:10.440Z,99.90
2019-05-11T06:10:39.944Z,99.90
2019-05-11T06:13:09.674Z,99.90
2019-05-11T06:15:39.277Z,99.90
2019-05-11T06:18:08.836Z,99.90
2019-05-11T06:20:38.331Z,99.90
2019-05-11T06:23:08.027Z,99.90
2019-05-11T06:25:37.523Z,99.90
2019-05-11T06:28:07.185Z,99.90
2019-05-11T06:30:37.027Z,99.90
2019-05-11T06:33:06.766Z,99.90
2019-05-11T06:35:36.560Z,99.90
2019-05-11T06:38:06.272Z,99.90
2019-05-11T06:40:36.195Z,99.90
2019-05-11T06:43:06.956Z,99.90
2019-05-11T06:45:36.674Z,99.90
2019-05-11T06:48:06.321Z,99.90
2019-05-11T06:50:35.948Z,99.90
2019-05-11T06:53:05.706Z,99.90
2019-05-11T06:55:35.299Z,99.90
2019-05-11T06:58:05.235Z,99.90
2019-05-11T07:00:35.313Z,99.90
2019-05-11T07:03:05.087Z,99.90
2019-05-11T07:05:40.575Z,99.90
2019-05-11T07:08:10.121Z,99.90
2019-05-11T07:21:56.376Z,99.90
2019-05-11T07:24:25.863Z,99.90
2019-05-11T07:26:55.453Z,99.90
2019-05-11T07:29:24.918Z,99.90
2019-05-11T07:31:54.626Z,99.90
2019-05-11T07:34:24.143Z,99.90
2019-05-11T07:36:53.631Z,99.90
2019-05-11T07:39:23.129Z,99.90
2019-05-11T07:41:52.657Z,99.90
2019-05-11T07:44:34.909Z,99.90
2019-05-11T07:46:53.357Z,99.90
2019-05-11T07:49:25.900Z,99.90
2019-05-11T07:51:58.546Z,99.90
2019-05-11T07:54:28.206Z,99.90
2019-05-11T07:57:01.974Z,99.90
2019-05-11T07:59:31.559Z,99.90
2019-05-11T08:02:01.103Z,99.90
2019-05-11T08:04:30.612Z,99.90
2019-05-11T08:07:00.116Z,99.90
2019-05-11T08:09:29.583Z,99.90
2019-05-11T08:11:59.138Z,99.90
2019-05-11T08:14:28.948Z,99.90
2019-05-11T08:16:59.347Z,99.90
2019-05-11T08:19:29.203Z,99.90
2019-05-11T08:21:58.786Z,99.90
2019-05-11T08:24:28.590Z,99.90
2019-05-11T08:26:58.452Z,99.90
2019-05-11T08:29:28.095Z,99.90
2019-05-11T08:31:58.069Z,99.90
2019-05-11T08:34:28.599Z,99.90
2019-05-11T08:36:58.545Z,99.90
2019-05-11T08:39:28.842Z,99.90
2019-05-11T08:41:59.147Z,99.90
2019-05-11T08:44:30.789Z,99.90
2019-05-11T08:47:00.368Z,99.90
2019-05-11T08:49:30.822Z,99.90
2019-05-11T08:52:00.974Z,99.90
2019-05-11T08:54:30.951Z,99.90
2019-05-11T08:57:00.982Z,99.90
2019-05-11T08:59:31.139Z,99.90
2019-05-11T09:02:00.987Z,99.90
2019-05-11T09:04:30.919Z,99.90
2019-05-11T09:07:00.816Z,99.90
2019-05-11T09:09:33.579Z,99.90
2019-05-11T09:12:07.730Z,99.90
2019-05-11T09:14:35.771Z,99.90
2019-05-11T09:17:07.818Z,99.90
2019-05-11T09:19:40.762Z,99.90
2019-05-11T09:22:12.658Z,99.90
2019-05-11T09:24:42.754Z,99.90
2019-05-11T09:27:13.458Z,99.90
2019-05-11T09:29:44.057Z,99.90
2019-05-11T09:32:33.235Z,99.90
2019-05-11T09:35:22.597Z,99.90
2019-05-11T09:37:52.763Z,99.90
2019-05-11T09:40:22.743Z,99.90
2019-05-11T09:42:52.894Z,99.90
2019-05-11T09:45:23.675Z,99.90
2019-05-11T09:47:55.087Z,99.90
2019-05-11T09:50:28.340Z,99.90
2019-05-11T09:52:58.302Z,99.90
2019-05-11T09:55:28.366Z,99.90
2019-05-11T09:57:58.600Z,99.90
2019-05-11T10:00:30.247Z,99.90
2019-05-11T10:03:00.456Z,99.90
2019-05-11T10:05:30.102Z,99.90
2019-05-11T10:08:00.124Z,99.90
2019-05-11T10:10:29.522Z,99.90
2019-05-11T10:12:59.273Z,99.90
2019-05-11T10:16:03.638Z,99.90
2019-05-11T10:18:23.779Z,99.90
2019-05-11T10:20:54.478Z,99.90
2019-05-11T10:23:43.737Z,99.90
2019-05-11T10:26:13.243Z,99.90
2019-05-11T10:28:48.174Z,99.90
2019-05-11T10:31:18.026Z,99.90
2019-05-11T10:33:52.176Z,99.90
2019-05-11T10:36:22.837Z,99.90
2019-05-11T10:38:52.455Z,99.90
2019-05-11T10:41:21.937Z,99.90
2019-05-11T10:43:51.407Z,99.90
2019-05-11T10:46:23.509Z,99.90
2019-05-11T10:48:52.070Z,99.90
2019-05-11T10:51:21.553Z,99.90
2019-05-11T10:53:52.119Z,99.90
2019-05-11T10:56:21.701Z,99.90
2019-05-11T10:58:51.199Z,99.90
2019-05-11T11:01:20.718Z,99.90
2019-05-11T11:03:50.220Z,99.90
2019-05-11T11:06:19.641Z,99.90
2019-05-11T11:08:49.190Z,99.90
2019-05-11T11:11:18.744Z,99.90
2019-05-11T11:13:48.325Z,99.90
2019-05-11T11:16:35.083Z,99.90
2019-05-11T11:18:49.004Z,99.90
2019-05-11T11:21:22.526Z,99.90
2019-05-11T11:23:49.808Z,99.90
2019-05-11T11:26:19.383Z,99.90
2019-05-11T11:29:11.038Z,99.90
2019-05-11T11:31:41.472Z,99.90
2019-05-11T11:34:11.204Z,99.90
2019-05-11T11:36:40.727Z,99.90
2019-05-11T11:39:10.266Z,99.90
2019-05-11T11:41:39.888Z,99.90
2019-05-11T11:44:09.521Z,99.90
2019-05-11T11:46:50.809Z,99.90
2019-05-11T11:49:10.266Z,99.90
2019-05-11T11:51:39.807Z,99.90
2019-05-11T11:54:09.288Z,99.90
2019-05-11T11:56:38.863Z,99.90
2019-05-11T11:59:11.550Z,99.90
2019-05-11T12:01:41.275Z,99.90
2019-05-11T12:04:10.832Z,99.90
2019-05-11T12:06:40.658Z,99.90
2019-05-11T12:09:10.386Z,99.90
2019-05-11T12:11:40.346Z,99.90
2019-05-11T12:14:10.190Z,99.90
2019-05-11T12:16:39.716Z,99.90
2019-05-11T12:19:09.276Z,99.90
2019-05-11T12:21:38.860Z,99.90
2019-05-11T12:24:08.900Z,99.90
2019-05-11T12:26:38.897Z,99.90
2019-05-11T12:29:08.609Z,99.90
2019-05-11T12:31:59.250Z,99.90
2019-05-11T12:34:29.237Z,99.90
2019-05-11T12:36:59.592Z,99.90
2019-05-11T12:39:29.685Z,99.90
2019-05-11T12:42:00.152Z,99.90
2019-05-11T12:44:30.286Z,99.90
2019-05-11T12:47:01.353Z,99.90
2019-05-11T12:49:31.351Z,99.90
2019-05-11T12:52:01.608Z,99.90
2019-05-11T12:54:34.514Z,99.90
2019-05-11T12:57:05.017Z,99.90
2019-05-11T12:59:34.902Z,99.90
2019-05-11T13:02:05.295Z,99.90
2019-05-11T13:04:35.242Z,99.90
2019-05-11T13:07:05.190Z,99.90
2019-05-11T13:09:34.719Z,99.90
2019-05-11T13:12:04.299Z,99.90
2019-05-11T13:14:33.833Z,99.90
2019-05-11T13:17:03.375Z,99.90
2019-05-11T13:19:32.908Z,99.90
2019-05-11T13:22:02.424Z,99.90
2019-05-11T13:24:32.006Z,99.90
2019-05-11T13:27:01.618Z,99.90
2019-05-11T13:29:31.595Z,99.90
2019-05-11T13:32:01.188Z,99.90
2019-05-11T13:34:31.610Z,99.90
2019-05-11T13:37:02.406Z,99.90
2019-05-11T13:39:32.349Z,99.90
2019-05-11T13:42:01.835Z,99.90
2019-05-11T13:44:31.381Z,99.90
2019-05-11T13:47:00.847Z,99.90
2019-05-11T13:49:32.432Z,99.90
2019-05-11T13:52:01.757Z,99.90
2019-05-11T13:54:31.372Z,99.90
2019-05-11T13:57:00.915Z,99.90
2019-05-11T13:59:30.661Z,99.90
2019-05-11T14:02:00.397Z,99.90
2019-05-11T14:04:29.883Z,99.90
2019-05-11T14:06:59.393Z,99.90
2019-05-11T14:09:29.054Z,99.90
2019-05-11T14:11:58.599Z,99.90
2019-05-11T14:14:29.008Z,99.90
2019-05-11T14:16:58.987Z,99.90
2019-05-11T14:19:29.178Z,99.90
2019-05-11T14:21:59.002Z,99.90
2019-05-11T14:24:28.919Z,99.90
2019-05-11T14:26:58.646Z,99.90
2019-05-11T14:29:28.550Z,99.90
2019-05-11T14:31:58.222Z,99.90
2019-05-11T14:34:48.435Z,99.90
2019-05-11T14:37:18.246Z,99.90
2019-05-11T14:39:48.291Z,99.90
2019-05-11T14:42:22.115Z,99.90
2019-05-11T14:44:48.938Z,99.90
2019-05-11T14:47:19.466Z,99.90
2019-05-11T14:49:49.141Z,99.90
2019-05-11T14:52:20.591Z,99.90
2019-05-11T14:54:50.200Z,99.90
2019-05-11T14:57:19.715Z,99.90
2019-05-11T14:59:49.348Z,99.90
2019-05-11T15:02:40.235Z,99.90
2019-05-11T15:05:18.379Z,99.90
2019-05-11T15:07:52.390Z,99.90
2019-05-11T15:10:22.674Z,99.90
2019-05-11T15:12:53.812Z,99.90
2019-05-11T15:15:24.996Z,99.90
2019-05-11T15:17:57.962Z,99.90
2019-05-11T15:20:28.529Z,99.90
2019-05-11T15:22:58.340Z,99.90
2019-05-11T15:25:28.912Z,99.90
2019-05-11T15:27:58.624Z,99.90
2019-05-11T15:30:28.866Z,99.90
2019-05-11T15:32:58.871Z,99.90
2019-05-11T15:35:28.710Z,99.90
2019-05-11T15:37:58.406Z,99.90
2019-05-11T15:40:28.117Z,99.90
2019-05-11T15:42:58.602Z,99.90
2019-05-11T15:45:28.373Z,99.90
2019-05-11T15:47:58.893Z,99.90
2019-05-11T15:50:31.514Z,99.90
2019-05-11T15:53:01.247Z,99.90
2019-05-11T15:55:30.681Z,99.90
2019-05-11T15:58:00.196Z,99.90
2019-05-11T16:00:29.889Z,99.90
2019-05-11T16:02:59.430Z,99.90
2019-05-11T16:05:28.974Z,99.90
2019-05-11T16:08:01.694Z,99.90
2019-05-11T16:10:30.431Z,99.90
2019-05-11T16:12:59.876Z,99.90
2019-05-11T16:15:29.374Z,99.90
2019-05-11T16:18:02.693Z,99.90
2019-05-11T16:20:32.473Z,99.90
2019-05-11T16:23:02.124Z,99.90
2019-05-11T16:25:31.712Z,99.90
2019-05-11T16:28:01.262Z,99.90
2019-05-11T16:30:30.801Z,99.90
2019-05-11T16:33:00.362Z,99.90
2019-05-11T16:35:29.834Z,99.90
2019-05-11T16:37:59.568Z,99.90
2019-05-11T16:40:29.649Z,99.90
2019-05-11T16:42:59.302Z,99.90
2019-05-11T16:45:28.837Z,99.90
2019-05-11T16:47:59.039Z,99.90
2019-05-11T16:50:28.673Z,99.90
2019-05-11T16:52:58.610Z,99.90
2019-05-11T16:55:28.295Z,99.90
2019-05-11T16:57:58.824Z,99.90
2019-05-11T17:00:28.547Z,99.90
2019-05-11T17:02:58.083Z,99.90
2019-05-11T17:05:33.360Z,99.90
2019-05-11T17:08:01.570Z,99.90
2019-05-11T17:10:31.231Z,99.90
2019-05-11T17:13:00.944Z,99.90
2019-05-11T17:15:30.910Z,99.90
2019-05-11T17:18:00.555Z,99.10
2019-05-11T17:20:30.400Z,98.60
2019-05-11T17:23:03.700Z,97.60
2019-05-11T17:25:37.781Z,96.50
2019-05-11T17:28:09.760Z,96.30
2019-05-11T17:30:38.757Z,95.90
2019-05-11T17:33:08.821Z,96.10
2019-05-11T17:35:38.390Z,95.40
2019-05-11T17:38:08.071Z,95.50
2019-05-11T17:40:37.902Z,95.60
2019-05-11T17:43:09.028Z,96.20
2019-05-11T17:45:38.800Z,97.40
2019-05-11T17:48:08.575Z,97.90
2019-05-11T17:50:38.466Z,98.40
2019-05-11T17:53:08.007Z,98.60
2019-05-11T17:55:38.286Z,99.20
2019-05-11T17:58:08.659Z,99.40
2019-05-11T18:00:39.233Z,99.50
2019-05-11T18:03:11.431Z,99.90
2019-05-11T18:05:41.118Z,99.90
2019-05-11T18:08:10.595Z,99.90
2019-05-11T18:10:40.068Z,99.90
2019-05-11T18:13:09.653Z,99.90
2019-05-11T18:15:39.159Z,99.90
2019-05-11T18:18:09.406Z,99.90
2019-05-11T18:20:39.321Z,99.90
2019-05-11T18:23:08.876Z,99.90
2019-05-11T18:25:38.986Z,99.90
2019-05-11T18:28:08.714Z,99.90
2019-05-11T18:30:38.820Z,99.90
2019-05-11T18:33:08.577Z,99.90
2019-05-11T18:35:38.139Z,99.90
2019-05-11T18:38:08.571Z,99.90
2019-05-11T18:40:38.449Z,99.90
2019-05-11T18:43:09.582Z,99.90
2019-05-11T18:45:39.055Z,99.90
2019-05-11T18:48:08.589Z,99.90
2019-05-11T18:50:38.645Z,99.90
2019-05-11T18:53:09.185Z,99.90
2019-05-11T18:55:38.903Z,99.90
2019-05-11T18:58:08.405Z,99.90
2019-05-11T19:00:38.239Z,99.90
2019-05-11T19:03:08.958Z,99.90
2019-05-11T19:05:38.730Z,99.90
2019-05-11T19:08:08.363Z,99.90
2019-05-11T19:10:38.400Z,99.90
2019-05-11T19:13:08.118Z,99.90
2019-05-11T19:15:38.899Z,99.90
2019-05-11T19:18:08.582Z,99.90
2019-05-11T19:20:45.595Z,99.90
2019-05-11T19:23:09.422Z,99.90
2019-05-11T19:25:38.975Z,99.90
2019-05-11T19:28:08.752Z,99.90
2019-05-11T19:30:38.501Z,99.90
2019-05-11T19:33:11.184Z,99.90
2019-05-11T19:35:39.434Z,99.90
2019-05-11T19:38:09.250Z,99.90
2019-05-11T19:40:38.849Z,99.90
2019-05-11T19:43:08.474Z,99.90
2019-05-11T19:45:38.586Z,99.90
2019-05-11T19:48:08.459Z,99.90
2019-05-11T19:50:40.989Z,99.90
2019-05-11T19:53:09.582Z,99.90
2019-05-11T19:55:39.103Z,99.90
2019-05-11T19:58:11.496Z,99.90
2019-05-11T20:00:41.062Z,99.90
2019-05-11T20:03:10.716Z,99.90
2019-05-11T20:05:40.222Z,99.90
2019-05-11T20:08:09.911Z,99.90
2019-05-11T20:10:39.542Z,99.90
2019-05-11T20:13:09.319Z,99.90
2019-05-11T20:15:38.951Z,99.90
2019-05-11T20:18:08.540Z,99.90
2019-05-11T20:20:38.147Z,99.90
2019-05-11T20:23:07.923Z,99.90
2019-05-11T20:25:38.113Z,99.90
2019-05-11T20:28:08.228Z,99.90
2019-05-11T20:30:37.835Z,99.90
2019-05-11T20:33:08.710Z,99.90
2019-05-11T20:35:38.435Z,99.90
2019-05-11T20:38:13.759Z,99.90
2019-05-11T20:40:44.006Z,99.90
2019-05-11T20:43:13.695Z,99.90
2019-05-11T20:45:43.382Z,99.90
2019-05-11T20:48:13.097Z,99.90
2019-05-11T20:50:42.630Z,99.90
2019-05-11T20:53:12.303Z,99.90
2019-05-11T20:55:41.865Z,99.90
2019-05-11T20:58:11.422Z,99.90
2019-05-11T21:00:41.097Z,99.90
2019-05-11T21:03:10.683Z,99.90
2019-05-11T21:05:40.170Z,99.90
2019-05-11T21:08:09.799Z,99.90
2019-05-11T21:10:39.319Z,99.90
2019-05-11T21:13:08.931Z,99.90
2019-05-11T21:15:38.668Z,99.90
2019-05-11T21:18:08.347Z,99.90
2019-05-11T21:20:38.212Z,99.90
2019-05-11T21:23:08.352Z,99.90
2019-05-11T21:25:37.988Z,99.90
2019-05-11T21:28:08.580Z,99.90
2019-05-11T21:30:40.083Z,99.90
2019-05-11T21:33:09.833Z,99.90
2019-05-11T21:35:39.486Z,99.90
2019-05-11T21:38:09.080Z,99.90
2019-05-11T21:40:38.692Z,99.90
2019-05-11T21:43:08.703Z,99.90
2019-05-11T21:45:40.784Z,99.90
2019-05-11T21:48:10.005Z,99.90
2019-05-11T21:50:39.515Z,99.90
2019-05-11T21:53:10.638Z,99.90
2019-05-11T21:55:40.491Z,99.90
2019-05-11T21:58:09.940Z,99.90
2019-05-11T22:00:39.808Z,99.90
2019-05-11T22:03:10.276Z,99.90
2019-05-11T22:05:39.997Z,99.90
2019-05-11T22:08:09.600Z,99.90
2019-05-11T22:10:39.262Z,99.90
2019-05-11T22:13:14.961Z,99.90
2019-05-11T22:15:44.495Z,99.90
2019-05-11T22:18:29.808Z,99.90
2019-05-11T22:20:45.197Z,99.90
2019-05-11T22:23:14.728Z,99.90
2019-05-11T22:25:44.257Z,99.90
2019-05-11T22:28:13.886Z,99.90
2019-05-11T22:30:43.409Z,99.90
2019-05-11T22:33:13.005Z,99.90
2019-05-11T22:35:42.534Z,99.90
2019-05-11T22:38:12.241Z,99.90
2019-05-11T22:40:42.271Z,99.90
2019-05-11T22:43:11.928Z,99.90
2019-05-11T22:45:41.484Z,99.90
2019-05-11T22:48:11.124Z,99.90
2019-05-11T22:50:43.598Z,99.90
2019-05-11T22:53:12.057Z,99.90
2019-05-11T22:55:41.597Z,99.90
2019-05-11T22:58:11.212Z,99.90
2019-05-11T23:00:43.008Z,99.90
2019-05-11T23:03:12.604Z,99.90
2019-05-11T23:05:42.372Z,99.90
2019-05-11T23:08:15.402Z,99.90
2019-05-11T23:10:45.016Z,99.90
2019-05-11T23:13:18.542Z,99.90
2019-05-11T23:15:58.464Z,99.90
2019-05-11T23:18:31.004Z,99.90
2019-05-11T23:21:58.697Z,99.90
2019-05-11T23:24:30.894Z,99.90
2019-05-11T23:27:10.057Z,99.90
2019-05-11T23:29:59.120Z,99.90
2019-05-11T23:32:38.963Z,99.90
2019-05-11T23:35:39.198Z,99.90
2019-05-11T23:38:08.970Z,99.90
2019-05-11T23:40:40.781Z,99.90
2019-05-11T23:43:10.384Z,99.90
2019-05-11T23:45:40.140Z,99.90
2019-05-11T23:48:09.749Z,99.90
2019-05-11T23:50:39.414Z,99.90
2019-05-11T23:53:10.303Z,99.90
2019-05-11T23:55:40.241Z,99.90
2019-05-11T23:58:09.942Z,99.90
